Time;durP1;ratioP1;P1;durP2;ratioP2;P2;SDS_P1;SDS_P2;PMS_P1;PMS_P2;Temp;Humidity;BMP_temperature;BMP_pressure;BME280_temperature;BME280_humidity;BME280_pressure;Samples;Min_cycle;Max_cycle;Signal;HPM_P1;HPM_P2
2022/05/04 00:00:10;;;;;;;37.47;18.67;;;;;;;10.48;100.00;100771.06;8307919;28;20045;-61
2022/05/04 00:04:10;;;;;;;43.85;19.92;;;;;;;10.65;100.00;100762.34;8292838;28;20045;-61
2022/05/04 00:08:11;;;;;;;39.50;19.42;;;;;;;10.77;100.00;100761.22;8292178;28;20519;-61
2022/05/04 00:12:11;;;;;;;33.85;17.48;;;;;;;10.92;100.00;100759.88;8275179;28;20038;-61
2022/05/04 00:16:12;;;;;;;38.60;16.70;;;;;;;10.95;100.00;100759.59;8291652;28;20054;-59
2022/05/04 00:20:12;;;;;;;39.50;17.13;;;;;;;10.70;100.00;100759.22;8292248;28;20049;-60
2022/05/04 00:24:12;;;;;;;37.33;17.55;;;;;;;10.61;100.00;100760.88;8293554;28;20030;-61
2022/05/04 00:28:13;;;;;;;42.90;19.65;;;;;;;10.39;100.00;100771.84;8291842;28;20112;-61
2022/05/04 00:32:16;;;;;;;35.00;17.80;;;;;;;10.26;100.00;100765.81;8291825;28;20030;-60
2022/05/04 00:36:17;;;;;;;46.53;20.17;;;;;;;10.18;100.00;100764.75;8291857;28;20107;-61
2022/05/04 00:40:17;;;;;;;45.08;18.73;;;;;;;10.18;100.00;100771.00;8291856;28;20096;-60
2022/05/04 00:44:18;;;;;;;38.38;18.10;;;;;;;9.97;100.00;100756.59;8274183;28;20426;-60
2022/05/04 00:48:19;;;;;;;45.13;18.63;;;;;;;9.90;100.00;100758.13;8291387;28;20034;-60
2022/05/04 00:52:19;;;;;;;43.50;19.17;;;;;;;9.87;100.00;100758.38;8303494;28;20040;-60
2022/05/04 00:56:20;;;;;;;44.35;19.60;;;;;;;9.82;100.00;100755.19;8322388;28;20033;-60
2022/05/04 01:00:21;;;;;;;36.78;17.42;;;;;;;9.87;100.00;100756.53;8322911;28;20116;-60
2022/05/04 01:04:21;;;;;;;45.35;19.25;;;;;;;9.78;100.00;100753.75;8322935;28;20128;-60
2022/05/04 01:08:22;;;;;;;40.08;16.65;;;;;;;9.73;100.00;100758.72;8309739;28;20030;-60
2022/05/04 01:12:23;;;;;;;39.17;17.17;;;;;;;9.63;100.00;100750.50;8295395;28;20499;-60
2022/05/04 01:16:23;;;;;;;36.55;17.10;;;;;;;9.54;100.00;100755.81;8290878;28;20219;-60
2022/05/04 01:20:24;;;;;;;35.92;16.40;;;;;;;9.66;100.00;100749.38;8302789;28;20660;-59
2022/05/04 01:24:25;;;;;;;39.25;17.55;;;;;;;9.71;100.00;100753.44;8322419;28;20124;-60
2022/05/04 01:28:25;;;;;;;39.50;16.87;;;;;;;9.63;100.00;100752.34;8326121;28;20092;-60
2022/05/04 01:32:26;;;;;;;37.72;16.98;;;;;;;9.42;100.00;100759.53;8328198;28;20280;-59
2022/05/04 01:36:26;;;;;;;30.58;15.88;;;;;;;9.50;100.00;100748.97;8328046;28;20124;-60
2022/05/04 01:40:26;;;;;;;44.78;17.00;;;;;;;9.57;100.00;100756.44;8299334;28;20038;-60
2022/05/04 01:44:27;;;;;;;33.22;14.82;;;;;;;9.70;100.00;100756.25;8296413;28;20164;-59
2022/05/04 01:48:27;;;;;;;33.10;15.48;;;;;;;9.47;100.00;100757.31;8278320;28;20041;-59
2022/05/04 01:52:28;;;;;;;31.70;15.27;;;;;;;9.28;100.00;100767.94;8321336;28;20042;-60
2022/05/04 01:56:28;;;;;;;29.08;15.43;;;;;;;9.42;100.00;100767.63;8327240;28;20041;-60
2022/05/04 02:00:29;;;;;;;33.65;13.80;;;;;;;9.59;100.00;100765.25;8306694;28;20041;-60
2022/05/04 02:04:30;;;;;;;27.98;14.18;;;;;;;9.55;100.00;100768.34;8298101;28;20045;-59
2022/05/04 02:08:30;;;;;;;32.05;14.45;;;;;;;9.42;100.00;100763.09;8295493;28;20063;-59
2022/05/04 02:12:31;;;;;;;37.47;14.05;;;;;;;9.53;100.00;100776.56;8283839;28;20042;-60
2022/05/04 02:16:32;;;;;;;29.27;13.40;;;;;;;9.29;100.00;100772.34;8325003;28;20458;-60
2022/05/04 02:20:32;;;;;;;30.10;15.80;;;;;;;9.13;100.00;100777.28;8306267;28;20045;-60
2022/05/04 02:24:33;;;;;;;37.00;16.10;;;;;;;9.10;100.00;100767.59;8326813;28;20103;-60
2022/05/04 02:28:33;;;;;;;37.80;15.80;;;;;;;8.90;100.00;100767.47;8326358;28;20033;-60
2022/05/04 02:32:33;;;;;;;39.33;16.10;;;;;;;8.64;100.00;100768.72;8326046;28;20076;-60
2022/05/04 02:38:05;;;;;;;39.55;17.10;;;;;;;8.65;100.00;100755.13;8308544;28;20065;-60
2022/05/04 02:40:54;;;;;;;44.70;18.65;;;;;;;8.67;100.00;100765.78;8265127;28;20458;-60
2022/05/04 02:44:54;;;;;;;43.92;18.13;;;;;;;8.86;100.00;100760.63;8294432;28;20037;-60
2022/05/04 02:48:55;;;;;;;42.23;18.00;;;;;;;8.69;100.00;100761.97;8277455;28;20095;-60
2022/05/04 02:52:55;;;;;;;41.00;18.08;;;;;;;8.71;100.00;100753.78;8286650;28;20395;-60
2022/05/04 02:56:55;;;;;;;41.08;17.58;;;;;;;8.62;100.00;100759.91;8280186;28;20044;-60
2022/05/04 03:02:26;;;;;;;31.63;16.57;;;;;;;8.80;100.00;100748.50;8294237;28;20405;-60
2022/05/04 03:05:27;;;;;;;36.45;16.73;;;;;;;8.83;100.00;100759.06;8293664;28;20273;-59
2022/05/04 03:09:27;;;;;;;35.95;17.52;;;;;;;8.82;100.00;100761.88;8294210;28;20042;-60
2022/05/04 03:13:28;;;;;;;37.50;16.92;;;;;;;8.82;100.00;100761.88;8294234;28;20034;-60
2022/05/04 03:17:29;;;;;;;36.33;16.88;;;;;;;8.93;100.00;100759.16;8293475;28;20052;-60
2022/05/04 03:21:29;;;;;;;38.30;18.27;;;;;;;8.86;100.00;100755.25;8313378;28;20041;-60
2022/05/04 03:25:29;;;;;;;37.03;17.58;;;;;;;8.66;100.00;100761.41;8324852;28;20450;-61
2022/05/04 03:29:30;;;;;;;36.53;17.13;;;;;;;8.41;100.00;100758.91;8324631;28;20049;-60
2022/05/04 03:33:30;;;;;;;51.03;21.00;;;;;;;8.46;100.00;100764.78;8324194;28;20038;-60
2022/05/04 03:37:31;;;;;;;46.55;18.33;;;;;;;8.51;100.00;100762.59;8300187;28;20117;-60
2022/05/04 03:41:31;;;;;;;38.90;17.55;;;;;;;8.56;100.00;100760.38;8302441;28;20438;-60
2022/05/04 03:45:32;;;;;;;44.22;17.38;;;;;;;8.81;100.00;100761.00;8297346;28;20049;-60
2022/05/04 03:49:33;;;;;;;43.92;17.55;;;;;;;8.79;100.00;100756.72;8299197;28;20037;-60
2022/05/04 03:53:33;;;;;;;48.28;18.05;;;;;;;8.69;100.00;100753.91;8324021;28;20509;-60
2022/05/04 03:57:33;;;;;;;42.80;18.98;;;;;;;8.62;100.00;100762.59;8323640;28;20045;-60
2022/05/04 04:01:34;;;;;;;41.78;17.83;;;;;;;8.60;100.00;100756.50;8305852;28;20058;-60
2022/05/04 04:05:34;;;;;;;44.88;17.90;;;;;;;8.56;100.00;100755.88;8292338;28;20099;-60
2022/05/04 04:09:35;;;;;;;36.15;16.83;;;;;;;8.51;100.00;100754.53;8307748;28;20029;-60
2022/05/04 04:13:35;;;;;;;40.95;17.60;;;;;;;8.50;100.00;100767.13;8270455;28;20064;-60
2022/05/04 04:17:35;;;;;;;34.33;17.27;;;;;;;8.46;100.00;100759.41;8288474;28;20089;-60
2022/05/04 04:21:52;;;;;;;42.25;18.70;;;;;;;8.54;100.00;100763.22;8295363;28;20246;-60
2022/05/04 04:25:52;;;;;;;42.58;17.95;;;;;;;8.33;100.00;100769.44;8288793;28;20034;-60
2022/05/04 04:29:53;;;;;;;43.97;18.05;;;;;;;8.33;100.00;100766.75;8288294;28;20030;-60
2022/05/04 04:33:53;;;;;;;45.10;19.20;;;;;;;8.46;100.00;100773.75;8293055;28;20050;-60
2022/05/04 04:37:53;;;;;;;46.33;18.95;;;;;;;8.60;100.00;100770.81;8288604;28;20049;-60
2022/05/04 04:41:54;;;;;;;40.55;17.95;;;;;;;8.68;100.00;100775.59;8288806;28;20042;-60
2022/05/04 04:45:54;;;;;;;41.33;17.92;;;;;;;8.77;100.00;100775.72;8287822;28;20026;-60
2022/05/04 04:49:56;;;;;;;38.83;15.63;;;;;;;8.74;100.00;100780.47;8299227;28;20498;-60
2022/05/04 04:53:56;;;;;;;39.75;17.17;;;;;;;8.79;100.00;100783.69;8292786;28;20124;-59
2022/05/04 04:57:57;;;;;;;44.77;18.27;;;;;;;8.97;100.00;100793.00;8287249;28;20034;-60
2022/05/04 05:01:57;;;;;;;40.20;17.48;;;;;;;9.23;100.00;100794.41;8292543;28;20372;-60
2022/05/04 05:05:57;;;;;;;34.25;15.77;;;;;;;9.22;100.00;100800.81;8293099;28;20558;-60
2022/05/04 05:09:58;;;;;;;35.88;16.67;;;;;;;9.37;100.00;100797.69;8286783;28;20049;-60
2022/05/04 05:18:18;;;;;;;31.30;16.02;;;;;;;9.64;100.00;100791.88;8292310;28;20454;-60
2022/05/04 05:22:19;;;;;;;41.17;16.42;;;;;;;9.92;100.00;100796.66;8286142;28;20141;-60
2022/05/04 05:26:19;;;;;;;35.42;16.05;;;;;;;9.96;100.00;100796.28;8280782;28;20566;-60
2022/05/04 05:30:19;;;;;;;31.65;15.65;;;;;;;10.23;100.00;100793.09;8297187;28;20119;-60
2022/05/04 05:34:20;;;;;;;28.57;14.87;;;;;;;10.26;99.11;100795.53;8279306;28;20056;-60
2022/05/04 05:38:20;;;;;;;37.25;15.35;;;;;;;10.57;96.90;100791.88;8292022;28;20371;-61
2022/05/04 05:42:21;;;;;;;34.95;14.90;;;;;;;10.74;96.62;100788.53;8287932;28;20470;-60
2022/05/04 05:46:21;;;;;;;31.20;15.93;;;;;;;11.03;95.20;100792.25;8291985;28;20415;-60
2022/05/04 05:50:21;;;;;;;27.75;12.63;;;;;;;11.07;93.05;100801.78;8306006;28;20283;-60
2022/05/04 05:54:22;;;;;;;34.22;14.68;;;;;;;11.42;92.89;100796.78;8286282;28;20034;-59
2022/05/04 05:58:22;;;;;;;30.83;11.75;;;;;;;11.39;92.91;100797.06;8291900;28;20310;-60
2022/05/04 06:02:27;;;;;;;22.35;11.18;;;;;;;11.08;92.67;100790.00;8292699;28;20045;-60
2022/05/04 06:06:27;;;;;;;28.48;11.93;;;;;;;11.21;91.79;100801.41;8292357;28;20041;-61
2022/05/04 06:10:28;;;;;;;33.08;13.50;;;;;;;11.56;90.31;100792.81;8292714;28;20065;-61
2022/05/04 06:14:28;;;;;;;27.35;11.25;;;;;;;11.52;89.11;100792.22;8281320;28;20038;-60
2022/05/04 06:18:29;;;;;;;25.80;11.45;;;;;;;11.63;89.04;100800.28;8291165;28;20045;-60
2022/05/04 06:22:29;;;;;;;27.27;11.40;;;;;;;11.85;86.99;100805.44;8318062;28;20180;-60
2022/05/04 06:26:30;;;;;;;29.50;10.70;;;;;;;11.96;86.76;100800.84;8322899;28;20041;-60
2022/05/04 06:34:51;;;;;;;26.33;10.68;;;;;;;12.29;85.29;100808.56;8322878;28;20026;-59
2022/05/04 06:38:51;;;;;;;26.75;10.52;;;;;;;12.44;84.22;100813.34;8305532;28;20033;-60
2022/05/04 06:42:52;;;;;;;27.63;10.77;;;;;;;12.79;85.38;100815.44;8291302;28;20569;-60
2022/05/04 06:46:52;;;;;;;26.67;10.57;;;;;;;12.61;82.31;100814.47;8291139;28;20616;-60
2022/05/04 06:50:53;;;;;;;32.95;11.27;;;;;;;12.59;82.64;100805.66;8301266;28;20669;-60
2022/05/04 06:54:53;;;;;;;34.63;10.98;;;;;;;12.37;83.24;100814.09;8322219;28;20033;-60
2022/05/04 06:58:53;;;;;;;33.17;10.90;;;;;;;12.05;84.22;100813.56;8301604;28;20097;-59
2022/05/04 07:02:54;;;;;;;32.25;11.13;;;;;;;12.02;84.02;100805.72;8321493;28;20041;-60
2022/05/04 07:06:54;;;;;;;37.10;11.37;;;;;;;12.25;84.07;100812.53;8319536;28;20033;-60
2022/05/04 07:10:54;;;;;;;36.25;11.15;;;;;;;12.57;83.30;100819.34;8290172;28;20364;-60
2022/05/04 07:14:56;;;;;;;26.25;10.85;;;;;;;12.17;84.46;100823.25;8290207;28;20132;-60
2022/05/04 07:18:56;;;;;;;29.17;11.68;;;;;;;12.61;83.08;100814.47;8289569;28;20090;-60
2022/05/04 07:22:57;;;;;;;33.17;11.80;;;;;;;13.33;81.05;100813.66;8319614;28;20039;-60
2022/05/04 07:26:57;;;;;;;28.77;11.07;;;;;;;14.02;79.83;100804.88;8319775;28;20032;-61
2022/05/04 07:30:58;;;;;;;37.97;11.63;;;;;;;13.86;76.39;100811.03;8303583;28;20057;-62
2022/05/04 07:34:58;;;;;;;31.17;11.52;;;;;;;14.05;77.00;100810.00;8320933;28;20037;-61
2022/05/04 07:38:59;;;;;;;25.67;11.45;;;;;;;13.82;76.93;100815.91;8269233;28;20037;-61
2022/05/04 07:42:59;;;;;;;34.08;11.98;;;;;;;13.51;77.61;100824.59;8289352;28;20044;-61
2022/05/04 07:46:59;;;;;;;33.85;12.30;;;;;;;13.83;78.67;100823.09;8288786;28;20499;-61
2022/05/04 07:51:00;;;;;;;28.73;11.43;;;;;;;13.95;76.65;100820.97;8306731;28;20398;-61
2022/05/04 07:55:01;;;;;;;28.43;12.13;;;;;;;13.73;75.72;100822.28;8302983;28;20308;-61
2022/05/04 07:59:02;;;;;;;28.08;11.75;;;;;;;13.97;76.76;100824.41;8319863;28;20307;-61
2022/05/04 08:04:17;;;;;;;29.98;13.02;;;;;;;13.42;75.65;100829.03;8320489;28;20502;-61
2022/05/04 08:07:22;;;;;;;31.63;12.45;;;;;;;13.65;78.02;100821.34;8315054;28;20045;-61
2022/05/04 08:11:23;;;;;;;28.10;12.52;;;;;;;14.07;77.01;100825.19;8288757;28;20041;-61
2022/05/04 08:15:23;;;;;;;30.83;11.43;;;;;;;14.46;76.66;100826.59;8288534;28;20046;-61
2022/05/04 08:19:23;;;;;;;28.50;11.23;;;;;;;14.67;75.06;100829.78;8271729;28;20328;-61
2022/05/04 08:23:24;;;;;;;35.45;13.18;;;;;;;14.78;75.45;100832.25;8320147;28;20041;-61
2022/05/04 08:27:26;;;;;;;28.45;12.55;;;;;;;14.91;75.02;100826.41;8319750;28;20061;-61
2022/05/04 08:31:28;;;;;;;38.35;13.05;;;;;;;15.11;74.13;100827.88;8319245;28;20037;-61
2022/05/04 08:35:28;;;;;;;37.33;12.77;;;;;;;15.41;73.86;100830.09;8319770;28;20517;-61
2022/05/04 08:39:30;;;;;;;39.92;13.05;;;;;;;15.08;72.13;100820.88;8304550;28;20437;-61
2022/05/04 08:43:32;;;;;;;37.50;13.77;;;;;;;15.24;74.48;100829.13;8295270;28;20057;-61
2022/05/04 08:47:34;;;;;;;36.60;13.23;;;;;;;15.12;74.01;100841.31;8277400;28;20092;-61
2022/05/04 08:51:36;;;;;;;33.67;12.85;;;;;;;15.62;72.99;100828.63;8316376;28;20034;-61
2022/05/04 08:55:38;;;;;;;33.70;14.48;;;;;;;15.50;71.01;100835.41;8325553;28;20508;-61
2022/05/04 08:59:39;;;;;;;26.02;13.45;;;;;;;15.68;72.01;100833.41;8326142;28;20040;-61
2022/05/04 09:03:40;;;;;;;35.45;14.25;;;;;;;16.24;72.10;100826.38;8325397;28;20414;-61
2022/05/04 09:07:41;;;;;;;31.20;13.65;;;;;;;16.65;71.25;100822.66;8317945;28;20096;-61
2022/05/04 09:11:44;;;;;;;31.77;14.43;;;;;;;15.63;68.86;100819.44;8294134;28;20045;-61
2022/05/04 09:15:44;;;;;;;33.17;14.95;;;;;;;16.37;70.94;100807.63;8287435;28;20515;-61
2022/05/04 09:21:04;;;;;;;36.08;15.00;;;;;;;15.95;68.58;100813.19;8297583;28;20037;-61
2022/05/04 09:24:29;;;;;;;33.25;13.27;;;;;;;16.06;69.15;100814.75;8324684;28;20038;-61
2022/05/04 09:28:30;;;;;;;29.92;14.30;;;;;;;16.79;69.92;100825.53;8324074;28;20041;-61
2022/05/04 09:32:30;;;;;;;35.55;13.70;;;;;;;17.09;67.36;100827.53;8324311;28;20045;-61
2022/05/04 09:36:36;;;;;;;39.05;14.00;;;;;;;17.32;68.46;100827.63;8306236;28;20123;-61
2022/05/04 09:45:10;;;;;;;31.60;15.10;;;;;;;17.60;64.10;100826.19;8288533;28;20117;-61
2022/05/04 09:49:16;;;;;;;33.17;14.63;;;;;;;18.32;63.95;100816.63;8294477;28;20508;-61
2022/05/04 09:53:26;;;;;;;37.10;14.98;;;;;;;19.42;61.17;100813.03;8321380;28;20029;-61
2022/05/04 09:57:27;;;;;;;29.70;14.52;;;;;;;19.79;58.68;100808.44;8322956;28;20069;-61
2022/05/04 10:01:27;;;;;;;32.15;15.18;;;;;;;19.82;58.45;100813.53;8323763;28;20045;-61
2022/05/04 10:05:28;;;;;;;29.90;15.60;;;;;;;20.28;57.78;100809.44;8322860;28;20502;-61
2022/05/04 10:09:30;;;;;;;32.65;15.23;;;;;;;20.40;56.73;100811.44;8302052;28;20080;-61
2022/05/04 10:13:30;;;;;;;28.23;15.35;;;;;;;20.37;56.26;100811.00;8291590;28;20092;-61
2022/05/04 10:17:31;;;;;;;31.02;15.25;;;;;;;21.22;56.01;100812.53;8290604;28;20042;-61
2022/05/04 10:21:33;;;;;;;28.15;14.95;;;;;;;21.11;54.95;100813.13;8314324;28;20049;-59
2022/05/04 10:25:34;;;;;;;31.30;15.63;;;;;;;22.81;54.71;100803.56;8322855;28;20578;-61
2022/05/04 10:30:36;;;;;;;35.80;15.60;;;;;;;23.50;52.66;100804.72;8322910;28;20029;-61
2022/05/04 10:33:56;;;;;;;34.33;15.40;;;;;;;22.97;52.06;100806.72;8322099;28;20029;-63
2022/05/04 10:42:49;;;;;;;37.22;15.68;;;;;;;23.06;55.62;100807.38;8317549;27;20385;-61
2022/05/04 10:46:54;;;;;;;41.78;16.17;;;;;;;21.31;54.02;100805.81;8347553;28;20041;-61
2022/05/04 10:51:02;;;;;;;36.53;14.60;;;;;;;21.66;55.28;100801.16;8346796;28;20037;-61
2022/05/04 10:55:04;;;;;;;32.40;15.98;;;;;;;22.05;55.00;100796.63;8347758;28;20052;-61
2022/05/04 10:59:05;;;;;;;43.30;16.15;;;;;;;21.82;55.50;100795.31;8348276;28;20115;-61
2022/05/04 11:03:05;;;;;;;29.52;15.98;;;;;;;21.25;57.53;100787.38;8346836;28;20041;-61
2022/05/04 11:07:07;;;;;;;33.67;16.08;;;;;;;21.12;56.64;100792.81;8312695;28;20041;-61
2022/05/04 11:11:08;;;;;;;35.47;15.68;;;;;;;23.21;54.35;100786.72;8311180;28;20037;-62
2022/05/04 11:15:09;;;;;;;31.50;16.42;;;;;;;23.48;50.13;100781.19;8308931;28;20135;-62
2022/05/04 11:19:12;;;;;;;28.63;15.55;;;;;;;22.55;51.78;100781.50;8313208;28;20036;-62
2022/05/04 11:23:13;;;;;;;30.48;16.70;;;;;;;22.85;52.12;100782.78;8285985;28;20042;-62
2022/05/04 11:27:16;;;;;;;34.22;18.58;;;;;;;22.50;51.95;100762.84;8267448;28;20040;-62
2022/05/04 11:31:18;;;;;;;33.42;18.77;;;;;;;22.78;53.22;100766.22;8271839;28;20034;-62
2022/05/04 11:35:18;;;;;;;35.67;19.23;;;;;;;23.08;50.81;100756.41;8277693;28;20076;-62
2022/05/04 11:39:22;;;;;;;38.33;20.00;;;;;;;22.61;50.97;100764.97;8288255;28;20092;-62
2022/05/04 11:43:38;;;;;;;35.95;20.08;;;;;;;22.26;52.10;100749.66;8312145;28;20050;-62
2022/05/04 11:47:38;;;;;;;35.90;17.65;;;;;;;23.22;50.38;100746.19;8313057;28;20509;-62
2022/05/04 11:51:39;;;;;;;30.52;18.45;;;;;;;22.78;51.53;100749.69;8325309;28;20444;-62
2022/05/04 11:55:40;;;;;;;30.98;17.30;;;;;;;22.53;52.05;100740.38;8323364;28;20026;-62
2022/05/04 11:59:40;;;;;;;35.75;18.45;;;;;;;21.58;55.22;100749.88;8323759;28;20059;-62
2022/05/04 12:03:41;;;;;;;34.63;18.20;;;;;;;21.39;56.26;100747.91;8325219;28;20409;-62
2022/05/04 12:07:42;;;;;;;33.13;17.50;;;;;;;21.53;55.46;100740.56;8316960;28;20049;-62
2022/05/04 12:11:43;;;;;;;36.58;19.08;;;;;;;20.50;57.31;100742.44;8283870;28;20042;-62
2022/05/04 12:15:43;;;;;;;33.88;19.10;;;;;;;20.14;58.20;100731.56;8290865;28;20038;-63
2022/05/04 12:19:46;;;;;;;35.78;18.40;;;;;;;20.29;57.74;100735.09;8289882;28;20080;-62
2022/05/04 12:23:48;;;;;;;35.13;17.50;;;;;;;19.84;58.52;100729.97;8290880;28;20262;-62
2022/05/04 12:27:49;;;;;;;30.30;16.98;;;;;;;19.58;58.45;100723.34;8290163;28;20037;-62
2022/05/04 12:33:21;;;;;;;32.10;17.20;;;;;;;19.36;58.94;100720.53;8291133;28;20040;-62
2022/05/04 12:36:12;;;;;;;30.13;16.50;;;;;;;19.40;60.70;100716.38;8290288;28;20239;-62
2022/05/04 12:40:12;;;;;;;32.78;16.58;;;;;;;19.52;58.91;100714.00;8290139;28;20087;-62
2022/05/04 12:44:14;;;;;;;34.93;15.53;;;;;;;19.27;59.04;100707.97;8290310;28;20037;-62
2022/05/04 12:48:15;;;;;;;27.88;14.60;;;;;;;19.60;57.24;100705.63;8289589;28;20784;-62
2022/05/04 12:52:15;;;;;;;32.35;14.45;;;;;;;19.26;56.91;100697.19;8328202;28;20404;-62
2022/05/04 12:56:48;;;;;;;25.15;13.32;;;;;;;20.00;58.58;100701.41;8307296;28;20049;-62
2022/05/04 13:00:37;;;;;;;26.10;12.15;;;;;;;20.22;56.84;100700.38;8282339;28;20039;-62
2022/05/04 13:04:37;;;;;;;25.73;12.60;;;;;;;20.34;57.73;100698.78;8250536;28;20483;-62
2022/05/04 13:08:38;;;;;;;26.90;13.00;;;;;;;19.92;56.63;100693.31;8261502;28;20026;-62
2022/05/04 13:12:38;;;;;;;22.20;12.55;;;;;;;19.62;57.74;100691.72;8272530;28;20285;-62
2022/05/04 13:16:38;;;;;;;20.63;11.15;;;;;;;20.01;56.81;100697.63;8285878;28;20514;-62
2022/05/04 13:20:39;;;;;;;21.10;10.03;;;;;;;20.01;54.77;100687.50;8298407;28;20116;-62
2022/05/04 13:24:40;;;;;;;17.77;11.32;;;;;;;19.40;56.16;100677.13;8295092;28;20284;-63
2022/05/04 13:28:40;;;;;;;18.10;10.73;;;;;;;19.23;56.84;100665.53;8289643;28;20137;-63
2022/05/04 13:32:40;;;;;;;22.33;10.70;;;;;;;19.91;57.22;100666.91;8292150;28;20034;-62
2022/05/04 13:36:41;;;;;;;20.17;9.95;;;;;;;20.37;57.22;100668.19;8293355;28;20461;-63
2022/05/04 13:40:41;;;;;;;21.87;8.70;;;;;;;20.16;56.36;100669.03;8289955;28;20042;-61
2022/05/04 13:44:42;;;;;;;20.10;8.77;;;;;;;20.24;52.31;100659.81;8304197;28;20315;-63
2022/05/04 13:48:44;;;;;;;15.63;7.72;;;;;;;19.88;53.53;100670.06;8297866;28;20034;-63
2022/05/04 13:53:15;;;;;;;17.00;7.70;;;;;;;19.28;52.04;100659.50;8278835;28;20026;-63
2022/05/04 13:57:05;;;;;;;16.38;7.82;;;;;;;19.25;51.70;100657.94;8287321;28;20570;-63
2022/05/04 14:01:05;;;;;;;14.13;6.50;;;;;;;19.39;49.43;100648.00;8236248;28;20403;-62
2022/05/04 14:05:06;;;;;;;28.23;8.20;;;;;;;19.99;50.43;100661.25;8276906;28;20056;-62
2022/05/04 14:09:06;;;;;;;9.52;5.82;;;;;;;19.62;49.59;100658.81;8282275;28;20044;-62
2022/05/04 14:13:07;;;;;;;16.65;5.82;;;;;;;19.33;46.66;100649.63;8283001;28;20168;-62
2022/05/04 14:17:07;;;;;;;9.93;5.05;;;;;;;19.67;48.31;100650.84;8276447;28;20397;-62
2022/05/04 14:21:08;;;;;;;11.73;5.20;;;;;;;19.42;44.44;100648.47;8273095;28;20050;-62
2022/05/04 14:25:09;;;;;;;6.53;3.67;;;;;;;19.73;44.46;100645.41;8281045;28;20037;-63
2022/05/04 14:29:09;;;;;;;9.68;3.28;;;;;;;19.73;46.51;100655.56;8284314;28;20556;-63
2022/05/04 14:33:09;;;;;;;11.75;4.57;;;;;;;19.54;45.20;100645.22;8267033;28;20071;-64
2022/05/04 14:37:10;;;;;;;8.52;4.57;;;;;;;19.71;47.17;100647.50;8271338;28;20042;-63
2022/05/04 14:41:11;;;;;;;10.55;3.72;;;;;;;19.34;44.14;100639.53;8279990;28;20405;-63
2022/05/04 14:45:12;;;;;;;9.68;3.95;;;;;;;19.08;44.57;100629.06;8282366;28;20161;-63
2022/05/04 14:49:12;;;;;;;10.70;4.75;;;;;;;19.16;46.29;100637.16;8282037;28;20077;-63
2022/05/04 14:53:12;;;;;;;13.67;6.27;;;;;;;19.10;47.26;100632.47;8287801;28;20040;-63
2022/05/04 14:57:15;;;;;;;11.47;5.90;;;;;;;19.20;48.41;100635.75;8276606;28;20375;-63
2022/05/04 15:01:15;;;;;;;12.70;6.10;;;;;;;19.02;49.00;100627.09;8252032;28;20378;-63
2022/05/04 15:05:16;;;;;;;9.45;5.63;;;;;;;19.12;48.51;100624.88;8271119;28;20099;-63
2022/05/04 15:09:17;;;;;;;15.02;5.97;;;;;;;19.13;49.75;100625.75;8263216;28;20473;-63
2022/05/04 15:13:17;;;;;;;16.00;6.47;;;;;;;19.15;49.91;100626.38;8274857;28;20033;-63
2022/05/04 15:17:17;;;;;;;12.73;6.43;;;;;;;19.01;49.31;100622.66;8275379;28;20457;-63
2022/05/04 15:21:18;;;;;;;13.45;4.88;;;;;;;19.08;48.56;100620.84;8295393;28;20051;-63
2022/05/04 15:25:19;;;;;;;13.57;4.97;;;;;;;19.24;48.87;100617.88;8285711;28;20402;-63
2022/05/04 15:29:21;;;;;;;10.68;4.10;;;;;;;19.09;47.08;100618.97;8262036;28;20129;-63
2022/05/04 15:33:21;;;;;;;9.73;3.85;;;;;;;19.06;46.33;100619.34;8288656;28;20293;-63
2022/05/04 15:37:22;;;;;;;12.10;4.37;;;;;;;19.06;47.87;100620.19;8284099;28;20046;-63
2022/05/04 15:41:22;;;;;;;7.93;4.28;;;;;;;18.96;47.72;100614.16;8292740;28;20864;-63
2022/05/04 15:45:22;;;;;;;9.32;4.93;;;;;;;18.97;48.71;100615.84;8286569;28;20050;-63
2022/05/04 15:49:23;;;;;;;13.23;4.85;;;;;;;18.83;48.92;100619.47;8290794;28;20456;-63
2022/05/04 15:53:23;;;;;;;14.47;4.83;;;;;;;19.23;48.94;100618.91;8292860;28;20042;-63
2022/05/04 15:57:24;;;;;;;7.70;4.47;;;;;;;19.10;48.58;100621.50;8270292;28;20785;-63
2022/05/04 16:01:24;;;;;;;14.35;4.57;;;;;;;19.06;48.41;100625.66;8283521;28;20396;-63
2022/05/04 16:05:25;;;;;;;9.90;3.50;;;;;;;18.90;46.44;100625.88;8293165;28;20351;-63
2022/05/04 16:09:25;;;;;;;6.60;3.10;;;;;;;19.04;46.34;100627.75;8283669;28;20116;-63
2022/05/04 16:13:26;;;;;;;5.70;2.70;;;;;;;18.86;45.95;100624.59;8265833;28;20037;-63
2022/05/04 16:21:49;;;;;;;5.65;3.05;;;;;;;18.82;46.07;100623.25;8274279;28;20293;-63
2022/05/04 16:25:49;;;;;;;6.55;2.58;;;;;;;18.88;46.68;100627.97;8267511;28;20538;-63
2022/05/04 16:29:49;;;;;;;4.80;2.53;;;;;;;18.76;46.61;100629.47;8286053;28;20413;-63
2022/05/04 16:33:50;;;;;;;7.43;3.60;;;;;;;18.87;46.99;100631.75;8290687;28;20501;-63
2022/05/04 16:37:50;;;;;;;10.80;3.70;;;;;;;18.79;47.60;100637.31;8280472;28;20045;-63
2022/05/04 16:41:51;;;;;;;13.35;5.15;;;;;;;18.68;47.69;100635.06;8281856;28;20321;-63
2022/05/04 16:45:51;;;;;;;8.93;3.90;;;;;;;18.73;47.94;100629.88;8278575;28;20092;-63
2022/05/04 16:49:51;;;;;;;10.20;3.88;;;;;;;18.68;47.20;100628.75;8279350;28;20034;-63
2022/05/04 16:53:52;;;;;;;6.60;2.97;;;;;;;18.64;47.91;100646.59;8285678;28;20061;-63
2022/05/04 16:57:52;;;;;;;8.73;3.90;;;;;;;18.65;48.51;100649.16;8273078;28;20682;-63
2022/05/04 17:01:53;;;;;;;7.28;3.40;;;;;;;18.57;48.01;100649.25;8276934;28;20048;-63
2022/05/04 17:05:53;;;;;;;11.80;3.90;;;;;;;18.67;48.73;100644.31;8283253;28;20037;-63
2022/05/04 17:09:54;;;;;;;13.77;4.30;;;;;;;18.61;49.71;100641.50;8277648;28;20395;-63
2022/05/04 17:13:54;;;;;;;10.20;4.20;;;;;;;18.62;48.90;100644.06;8276231;28;20507;-63
2022/05/04 17:17:54;;;;;;;11.07;4.80;;;;;;;18.51;49.08;100647.25;8277003;28;20297;-63
2022/05/04 17:21:55;;;;;;;9.30;4.50;;;;;;;18.42;49.24;100651.13;8269056;28;20096;-63
2022/05/04 17:25:55;;;;;;;12.45;4.47;;;;;;;18.45;50.44;100653.47;8244061;28;20495;-62
2022/05/04 17:29:56;;;;;;;10.60;4.75;;;;;;;18.38;50.02;100658.00;8267865;28;20041;-63
2022/05/04 17:38:17;;;;;;;9.98;4.25;;;;;;;18.31;49.49;100657.03;8279615;28;20046;-63
2022/05/04 17:42:17;;;;;;;10.60;4.30;;;;;;;18.23;49.51;100648.91;8282854;28;20048;-63
2022/05/04 17:46:18;;;;;;;10.23;4.72;;;;;;;18.15;49.32;100657.22;8287745;28;20037;-63
2022/05/04 17:50:18;;;;;;;11.15;4.93;;;;;;;18.03;50.97;100652.34;8281489;28;20041;-63
2022/05/04 17:54:18;;;;;;;11.05;5.25;;;;;;;18.00;51.76;100655.47;8287893;28;20042;-63
2022/05/04 17:58:19;;;;;;;9.80;5.53;;;;;;;17.98;52.15;100660.25;8279483;28;20033;-63
2022/05/04 18:03:35;;;;;;;19.02;5.63;;;;;;;17.90;52.61;100669.38;8275059;28;20046;-64
2022/05/04 18:06:40;;;;;;;10.90;5.47;;;;;;;17.82;52.44;100654.94;8276693;28;20076;-63
2022/05/04 18:10:40;;;;;;;9.40;5.32;;;;;;;17.77;52.91;100665.56;8276747;28;20046;-63
2022/05/04 18:14:42;;;;;;;12.82;5.32;;;;;;;17.65;53.62;100665.16;8281451;28;20065;-63
2022/05/04 18:18:43;;;;;;;12.57;5.35;;;;;;;17.59;53.50;100683.13;8276558;28;20371;-63
2022/05/04 18:22:43;;;;;;;12.93;5.72;;;;;;;17.45;54.08;100674.88;8281480;28;20073;-63
2022/05/04 18:26:43;;;;;;;12.55;5.63;;;;;;;17.38;54.20;100676.56;8269368;28;20077;-63
2022/05/04 18:30:46;;;;;;;9.43;4.82;;;;;;;17.19;55.26;100687.97;8275229;28;20091;-63
2022/05/04 18:34:46;;;;;;;8.45;4.00;;;;;;;16.97;56.91;100694.22;8281408;28;20500;-63
2022/05/04 18:38:46;;;;;;;11.95;4.93;;;;;;;16.77;57.40;100695.69;8275983;28;20068;-63
2022/05/04 18:42:51;;;;;;;11.00;4.87;;;;;;;16.72;55.84;100698.06;8274879;28;20500;-63
2022/05/04 18:46:51;;;;;;;11.85;5.82;;;;;;;16.56;56.33;100695.41;8279153;28;20288;-63